• Join FlightAware (Why Join?)
  • Login
  • US Flag 
08:12PM EDT


 

Airport Tracker/Info


-or-


 

Live Flight TrackerFlight Track Log ✈ N415JA ✈ 19-Feb-2014 ✈ KGNV - KTMB

Flight Track Log - Related Links

Times and Time Zones

All times are in EST time to prevent confusion due to time zone crossing. See the N415JA flight status page for this flight to view local times or setup timezone preferences in your user account.

Time Position Orientation Groundspeed Altitude Reporting Facility
EST Latitude Longitude Course Direction KTS MPH feet Rate Location/Type
09:30PM 29.6803 -82.2303 105° East 183 211 2,400  Level Jacksonville Center
09:31PM 29.6322 -82.2189 168° South 223 257 6,400 3,840 Climbing Jacksonville Center
09:31PM 29.5819 -82.2192 180° South 232 267 9,400 2,940 Climbing Jacksonville Center
09:32PM 29.5069 -82.2197 180° South 250 288 12,100 2,640 Climbing Jacksonville Center
09:33PM 29.4214 -82.2225 182° South 281 323 14,700 2,580 Climbing Jacksonville Center
09:34PM 29.3294 -82.2256 182° South 315 362 17,300 2,460 Climbing Jacksonville Center
09:35PM 28.9741 -82.1833 180° South  Level FlightAware Approximate
09:35PM 29.2353 -82.1906 162° South 334 384 19,700  Level Jacksonville Center
09:36PM 29.1350 -82.1533 162° South 357 411 22,000 1,620 Climbing Jacksonville Center
09:37PM 29.0306 -82.1397 173° South 372 428 23,000 480 Climbing Jacksonville Center
09:38PM 28.9178 -82.1264 174° South 393 452 23,000  Level Jacksonville Center
09:39PM 28.7986 -82.1108 173° South 419 482 23,000  Level Jacksonville Center
09:40PM 28.6839 -82.0975 174° South 424 488 23,000  Level Jacksonville Center
09:41PM 28.5647 -82.0842 174° South 429 494 23,000  Level Jacksonville Center
09:43PM 28.3503 -82.0600 174° South 430 495 23,000  Level Miami Center
09:44PM 28.2156 -82.0419 173° South 438 504 23,000  Level Miami Center
09:45PM 28.0969 -82.0272 174° South 433 498 23,000  Level Miami Center
09:46PM 27.9869 -82.0150 174° South 422 486 23,000  Level Miami Center
09:47PM 27.8603 -81.9953 172° South 422 486 23,000  Level Miami Center
09:48PM 27.7483 -81.9761 171° South 416 479 23,000  Level Miami Center
09:49PM 27.6364 -81.9569 171° South 416 479 23,000  Level Miami Center
09:50PM 27.5222 -81.9381 172° South 416 479 23,000  Level Miami Center
09:51PM 27.4206 -81.9217 172° South 409 471 23,000  Level Miami Center
09:52PM 27.3083 -81.9053 173° South 409 471 23,000  Level Miami Center
09:53PM 27.1842 -81.8811 170° South 414 476 23,000  Level Miami Center
09:54PM 27.0719 -81.8644 172° South 414 476 23,000  Level Miami Center
09:55PM 26.9661 -81.8483 172° South 414 476 23,000  Level Miami Center
09:56PM 26.8544 -81.8156 165° South 419 482 23,000  Level Miami Center
09:57PM 26.7589 -81.7419 145° Southeast 412 474 23,000  Level Miami Center
09:58PM 26.6694 -81.6639 142° Southeast 412 474 23,000  Level Miami Center
09:59PM 26.5722 -81.5717 140° Southeast 417 480 23,000 -120 Level Miami Center
10:00PM 26.4972 -81.5058 142° Southeast 396 456 22,800 -840 Descending Miami Center
10:01PM 26.4158 -81.4356 142° Southeast 381 438 21,400 -1,620 Descending Miami Center
10:02PM 26.3347 -81.3606 140° Southeast 381 438 19,600 -1,920 Descending Miami Center
10:03PM 26.2392 -81.2781 142° Southeast 389 448 17,600 -1,980 Descending Miami Center
10:04PM 26.1578 -81.2058 141° Southeast 389 448 15,700 -1,860 Descending Miami Center
10:05PM 26.0986 -81.1619 146° Southeast 376 433 14,600 -1,800 Descending Miami Center
10:05PM 26.0742 -81.1333 134° Southeast 383 441 14,000 -1,800 Descending Miami Center
10:06PM 26.0050 -81.0778 144° Southeast 347 399 12,500 -1,740 Descending Miami Center
10:06PM 25.9989 -81.0658 120° Southeast 366 421 12,300 -1,860 Descending Miami Center
10:07PM 25.9422 -81.0086 138° Southeast 310 357 10,600 -1,680 Descending Miami Center
10:07PM 25.9422 -81.0061 90° East 347 399 10,600 -1,380 Level Miami Center
10:08PM 25.8983 -80.9353 125° Southeast 303 349 9,100 -1,980 Descending Miami Center
10:09PM 25.8519 -80.8692 128° Southeast 247 284 6,800 -1,980 Descending Miami Center
10:09PM 25.8603 -80.8742 332° Northwest 270 311 7,100 -1,860 Climbing Miami Center
10:10PM 25.8181 -80.8150 128° Southeast 239 275 5,100 -1,980 Descending Miami Center
10:10PM 25.8222 -80.8128 26° Northeast 253 291 5,100 -1,980 Level Miami Center
10:11PM 25.7839 -80.7608 129° Southeast 240 276 3,300 -1,980 Descending Miami Center
10:11PM 25.7842 -80.7517 88° East 241 277 3,200 -1,200 Descending Miami Center
10:12PM 25.7439 -80.6950 128° Southeast 217 250 2,000 -1,200 Descending Miami Center
10:12PM 25.7481 -80.6950 360° North 236 272 2,000  Level Miami Center
10:13PM 25.7158 -80.6456 126° Southeast 222 255 2,000  Level Miami Center
10:14PM 25.6817 -80.6008 130° Southeast 187 215 2,000  Level Miami Center
10:14PM 25.6839 -80.5961 62° Northeast 191 220 2,000  Level Miami Center
10:15PM 25.6514 -80.5539 130° Southeast 195 224 2,000 -360 Level Miami Center
10:16PM 25.6378 -80.5142 111° Southeast 123 142 1,400 -720 Descending Miami Center
10:17PM 25.6408 -80.4750 85° East 115 132 600 -840 Descending Miami Center
10:19PM 25.6476 -80.4332 200° South  Level Estimated
10:26PM 25.6476 -80.4332 200° South  Level Estimated